Time;durP1;ratioP1;P1;durP2;ratioP2;P2;SDS_P1;SDS_P2;PMS_P1;PMS_P2;Temp;Humidity;BMP_temperature;BMP_pressure;BME280_temperature;BME280_humidity;BME280_pressure;Samples;Min_cycle;Max_cycle;Signal;HPM_P1;HPM_P2
2021/12/11 00:02:16;;;;;;;;;;;;;;;2.35;97.98;100555.41;5093795;28;19918;-35
2021/12/11 00:04:44;;;;;;;;;;;;;;;2.33;98.12;100564.41;5094604;28;19912;-35
2021/12/11 00:07:19;;;;;;;;;;;;;;;2.30;97.63;100566.63;5094214;28;19956;-35
2021/12/11 00:09:49;;;;;;;;;;;;;;;2.30;97.83;100569.31;5094240;28;19958;-35
2021/12/11 00:12:17;;;;;;;;;;;;;;;2.31;98.01;100571.78;5093780;28;20337;-35
2021/12/11 00:14:45;;;;;;;;;;;;;;;2.31;97.91;100579.78;5094708;28;19912;-35
2021/12/11 00:17:11;;;;;;;;;;;;;;;2.30;97.64;100585.31;5094384;28;20275;-35
2021/12/11 00:19:38;;;;;;;;;;;;;;;2.31;97.97;100593.13;5094372;28;19973;-35
2021/12/11 00:22:06;;;;;;;;;;;;;;;2.28;98.04;100596.16;5093928;28;20374;-35
2021/12/11 00:24:33;;;;;;;;;;;;;;;2.27;97.90;100605.16;5094789;28;20369;-35
2021/12/11 00:27:24;;;;;;;;;;;;;;;2.25;98.00;100606.38;5093567;28;20005;-35
2021/12/11 00:29:50;;;;;;;;;;;;;;;2.24;98.16;100612.72;5089652;28;20007;-35
2021/12/11 00:32:21;;;;;;;;;;;;;;;2.21;98.43;100613.91;5094748;28;20022;-35
2021/12/11 00:34:47;;;;;;;;;;;;;;;2.19;98.10;100618.59;5094312;28;19963;-35
2021/12/11 00:37:13;;;;;;;;;;;;;;;2.16;98.22;100621.63;5093532;28;19966;-35
2021/12/11 00:39:49;;;;;;;;;;;;;;;2.16;98.27;100631.47;5093810;28;19970;-35
2021/12/11 00:42:15;;;;;;;;;;;;;;;2.15;98.32;100633.31;5093479;28;19923;-35
2021/12/11 00:44:45;;;;;;;;;;;;;;;2.14;98.14;100642.31;5093820;28;19911;-35
2021/12/11 00:47:13;;;;;;;;;;;;;;;2.16;98.14;100647.47;5093248;28;19959;-35
2021/12/11 00:50:04;;;;;;;;;;;;;;;2.14;98.28;100652.16;5075808;28;19912;-35
2021/12/11 00:52:33;;;;;;;;;;;;;;;2.11;98.25;100657.88;5089669;28;19912;-35
2021/12/11 00:55:00;;;;;;;;;;;;;;;2.09;98.18;100659.88;5093922;28;19952;-35
2021/12/11 00:57:25;;;;;;;;;;;;;;;2.06;98.39;100655.75;5093493;28;19984;-35
2021/12/11 01:00:17;;;;;;;;;;;;;;;2.05;98.16;100673.59;5093659;28;20390;-35
2021/12/11 01:02:43;;;;;;;;;;;;;;;2.04;98.58;100679.91;5089485;28;19924;-35
2021/12/11 01:05:10;;;;;;;;;;;;;;;2.02;98.80;100678.44;5093979;28;19919;-35
2021/12/11 01:07:36;;;;;;;;;;;;;;;2.00;98.59;100677.78;5093008;28;20436;-35
2021/12/11 01:10:09;;;;;;;;;;;;;;;1.96;98.66;100693.31;5093468;28;20364;-35
2021/12/11 01:12:43;;;;;;;;;;;;;;;1.93;98.77;100687.50;5095238;28;19951;-35
2021/12/11 01:15:08;;;;;;;;;;;;;;;1.91;98.74;100689.53;5097576;28;19919;-35
2021/12/11 01:17:58;;;;;;;;;;;;;;;1.91;98.99;100698.38;5098052;28;19916;-35
2021/12/11 01:20:34;;;;;;;;;;;;;;;1.91;98.94;100700.22;5097962;28;20382;-35
2021/12/11 01:22:59;;;;;;;;;;;;;;;1.85;98.81;100706.22;5097641;28;19916;-35
2021/12/11 01:25:26;;;;;;;;;;;;;;;1.86;99.29;100719.41;5097709;28;19912;-35
2021/12/11 01:27:54;;;;;;;;;;;;;;;1.87;99.25;100725.56;5097634;28;19960;-35
2021/12/11 01:30:28;;;;;;;;;;;;;;;1.84;99.37;100724.06;5097375;28;20416;-35
2021/12/11 01:32:54;;;;;;;;;;;;;;;1.85;99.16;100738.22;5097213;28;19918;-35
2021/12/11 01:35:19;;;;;;;;;;;;;;;1.86;99.04;100745.25;5097832;28;19984;-35
2021/12/11 01:37:46;;;;;;;;;;;;;;;1.83;98.96;100745.59;5097089;28;19960;-35
2021/12/11 01:40:13;;;;;;;;;;;;;;;1.77;99.40;100750.63;5097235;28;20362;-35
2021/12/11 01:42:39;;;;;;;;;;;;;;;1.78;99.50;100754.94;5097135;28;19955;-35
2021/12/11 01:45:08;;;;;;;;;;;;;;;1.77;99.42;100765.78;5097069;28;19974;-35
2021/12/11 01:47:35;;;;;;;;;;;;;;;1.73;99.43;100769.81;5096995;28;19966;-35
2021/12/11 01:50:13;;;;;;;;;;;;;;;1.73;99.49;100770.63;5097531;28;20019;-35
2021/12/11 01:52:42;;;;;;;;;;;;;;;1.72;99.54;100782.31;5096810;28;20242;-35
2021/12/11 01:55:17;;;;;;;;;;;;;;;1.68;99.43;100788.97;5097409;28;19915;-35
2021/12/11 01:57:46;;;;;;;;;;;;;;;1.68;99.70;100796.97;5096693;28;19916;-35
2021/12/11 02:00:14;;;;;;;;;;;;;;;1.68;100.00;100802.31;5097045;28;19939;-35
2021/12/11 02:02:45;;;;;;;;;;;;;;;1.72;100.00;100816.13;5096819;28;20319;-35
2021/12/11 02:05:13;;;;;;;;;;;;;;;1.73;99.88;100820.44;5096911;28;20375;-35
2021/12/11 02:07:43;;;;;;;;;;;;;;;1.67;99.30;100821.97;5096906;28;19912;-35
2021/12/11 02:10:19;;;;;;;;;;;;;;;1.60;99.59;100818.34;5096595;28;19962;-35
2021/12/11 02:12:45;;;;;;;;;;;;;;;1.60;99.42;100831.66;5097274;28;19916;-35
2021/12/11 02:15:13;;;;;;;;;;;;;;;1.62;99.87;100827.00;5097054;28;19956;-35
2021/12/11 02:17:40;;;;;;;;;;;;;;;1.63;99.82;100828.66;5096254;28;19999;-36
2021/12/11 02:20:07;;;;;;;;;;;;;;;1.61;99.68;100832.50;5097199;28;19912;-36
2021/12/11 02:22:37;;;;;;;;;;;;;;;1.59;99.64;100840.66;5096105;28;19912;-36
2021/12/11 02:25:05;;;;;;;;;;;;;;;1.56;99.85;100846.34;5096243;28;19965;-36
2021/12/11 02:27:35;;;;;;;;;;;;;;;1.56;100.00;100843.66;5096242;28;19998;-35
2021/12/11 02:30:15;;;;;;;;;;;;;;;1.58;100.00;100849.69;5096487;28;20279;-36
2021/12/11 02:32:43;;;;;;;;;;;;;;;1.62;100.00;100851.00;5096360;28;19912;-35
2021/12/11 02:35:13;;;;;;;;;;;;;;;1.65;99.80;100861.28;5096246;28;20062;-36
2021/12/11 02:37:47;;;;;;;;;;;;;;;1.65;99.74;100860.47;5096045;28;19931;-36
2021/12/11 02:40:27;;;;;;;;;;;;;;;1.63;99.90;100865.16;5096823;28;19912;-36
2021/12/11 02:42:52;;;;;;;;;;;;;;;1.64;100.00;100872.97;5095709;28;20209;-36
2021/12/11 02:45:21;;;;;;;;;;;;;;;1.65;100.00;100871.97;5095931;28;19946;-36
2021/12/11 02:47:48;;;;;;;;;;;;;;;1.69;100.00;100877.78;5095938;28;19959;-35
2021/12/11 02:50:40;;;;;;;;;;;;;;;1.72;100.00;100874.78;5095704;28;20451;-35
2021/12/11 02:53:11;;;;;;;;;;;;;;;1.71;99.96;100887.28;5091774;28;19912;-36
2021/12/11 02:55:39;;;;;;;;;;;;;;;1.67;99.95;100891.28;5097057;28;19916;-35
2021/12/11 02:58:06;;;;;;;;;;;;;;;1.69;100.00;100893.78;5095395;28;20403;-35
2021/12/11 03:00:55;;;;;;;;;;;;;;;1.72;100.00;100899.59;5095906;28;19918;-35
2021/12/11 03:03:25;;;;;;;;;;;;;;;1.71;100.00;100897.94;5013550;28;19921;-36
2021/12/11 03:06:26;;;;;;;;;;;;;;;1.75;100.00;100917.09;5013775;28;20051;-35
2021/12/11 03:08:42;;;;;;;;;;;;;;;1.75;100.00;100912.56;5012258;28;20358;-35
2021/12/11 03:11:09;;;;;;;;;;;;;;;1.75;100.00;100911.75;5013249;28;19913;-35
2021/12/11 03:13:37;;;;;;;;;;;;;;;1.75;100.00;100909.09;5013606;28;19917;-35
2021/12/11 03:16:02;;;;;;;;;;;;;;;1.79;100.00;100921.91;5013539;28;19913;-35
2021/12/11 03:18:28;;;;;;;;;;;;;;;1.80;100.00;100923.56;5012933;28;19968;-35
2021/12/11 03:20:53;;;;;;;;;;;;;;;1.80;100.00;100920.06;5013595;28;19917;-35
2021/12/11 03:23:19;;;;;;;;;;;;;;;1.84;100.00;100925.88;5012898;28;19921;-35
2021/12/11 03:25:45;;;;;;;;;;;;;;;1.80;100.00;100928.88;5012956;28;19921;-35
2021/12/11 03:28:13;;;;;;;;;;;;;;;1.78;100.00;100936.25;5013014;28;19980;-36
2021/12/11 03:30:40;;;;;;;;;;;;;;;1.80;100.00;100933.41;5013050;28;19961;-35
2021/12/11 03:33:14;;;;;;;;;;;;;;;1.78;100.00;100936.25;5012684;28;19921;-35
2021/12/11 03:35:40;;;;;;;;;;;;;;;1.79;100.00;100942.41;5012945;28;19914;-35
2021/12/11 03:38:05;;;;;;;;;;;;;;;1.79;100.00;100937.91;5012539;28;19919;-35
2021/12/11 03:40:31;;;;;;;;;;;;;;;1.75;100.00;100943.75;5060893;28;19911;-36
2021/12/11 03:42:57;;;;;;;;;;;;;;;1.74;100.00;100953.56;5095328;28;20015;-35
2021/12/11 03:45:25;;;;;;;;;;;;;;;1.71;100.00;100948.59;5095601;28;19912;-35
2021/12/11 03:47:55;;;;;;;;;;;;;;;1.74;100.00;100956.25;5094746;28;19912;-35
2021/12/11 03:50:21;;;;;;;;;;;;;;;1.76;100.00;100953.44;5095523;28;19963;-36
2021/12/11 03:52:47;;;;;;;;;;;;;;;1.79;100.00;100956.56;5095000;28;19951;-35
2021/12/11 03:55:15;;;;;;;;;;;;;;;1.76;100.00;100948.94;5095217;28;19916;-35
2021/12/11 03:57:42;;;;;;;;;;;;;;;1.74;100.00;100950.09;5094915;28;19912;-35
2021/12/11 04:00:13;;;;;;;;;;;;;;;1.75;100.00;100949.91;5094245;28;19912;-35
2021/12/11 04:02:39;;;;;;;;;;;;;;;1.75;100.00;100952.56;5094694;28;20229;-36
2021/12/11 04:05:05;;;;;;;;;;;;;;;1.71;100.00;100964.59;5094399;28;19916;-35
2021/12/11 04:07:37;;;;;;;;;;;;;;;1.74;100.00;100964.25;5094714;28;19916;-35
2021/12/11 04:10:04;;;;;;;;;;;;;;;1.77;100.00;100966.59;5094634;28;19932;-35
2021/12/11 04:12:29;;;;;;;;;;;;;;;1.81;100.00;100964.41;5094430;28;19911;-35
2021/12/11 04:14:56;;;;;;;;;;;;;;;1.77;100.00;100965.75;5076823;28;19912;-35
2021/12/11 04:17:22;;;;;;;;;;;;;;;1.79;100.00;100977.91;5094089;28;19912;-36
2021/12/11 04:19:51;;;;;;;;;;;;;;;1.85;100.00;100979.03;5094082;28;19934;-35
2021/12/11 04:22:16;;;;;;;;;;;;;;;1.88;100.00;100985.88;5094340;28;19919;-36
2021/12/11 04:24:43;;;;;;;;;;;;;;;1.91;100.00;100988.22;5093810;28;19911;-35
2021/12/11 04:27:10;;;;;;;;;;;;;;;1.96;100.00;100994.69;5093964;28;20394;-35
2021/12/11 04:29:35;;;;;;;;;;;;;;;2.00;100.00;101000.50;5094443;28;19912;-35
2021/12/11 04:32:02;;;;;;;;;;;;;;;2.05;100.00;101004.34;5094375;28;19919;-35
2021/12/11 04:34:29;;;;;;;;;;;;;;;2.07;100.00;101004.16;5094025;28;19965;-36
2021/12/11 04:37:00;;;;;;;;;;;;;;;2.13;100.00;100995.47;5093708;28;19916;-35
2021/12/11 04:39:27;;;;;;;;;;;;;;;2.15;100.00;101006.81;5093675;28;19934;-35
2021/12/11 04:42:02;;;;;;;;;;;;;;;2.17;100.00;101012.81;5093995;28;20020;-35
2021/12/11 04:44:33;;;;;;;;;;;;;;;2.18;100.00;101017.13;5093540;28;19958;-35
2021/12/11 04:46:59;;;;;;;;;;;;;;;2.22;100.00;101018.44;5093496;28;20022;-36
2021/12/11 04:49:35;;;;;;;;;;;;;;;2.24;100.00;101019.09;5093629;28;19996;-35
2021/12/11 04:52:09;;;;;;;;;;;;;;;2.29;100.00;101018.59;5093815;28;19990;-35
2021/12/11 04:54:48;;;;;;;;;;;;;;;2.31;100.00;101027.25;5093304;28;19920;-35
2021/12/11 05:00:05;;;;;;;;;;;;;;;2.40;100.00;101036.91;5093465;28;19912;-35
2021/12/11 05:10:38;;;;;;;;;;;;;;;2.35;100.00;101041.94;5093965;28;19965;-35
2021/12/11 05:13:03;;;;;;;;;;;;;;;2.38;100.00;101049.56;5093360;28;20006;-35
2021/12/11 05:15:31;;;;;;;;;;;;;;;2.42;100.00;101055.41;5093808;28;20017;-36
2021/12/11 05:17:57;;;;;;;;;;;;;;;2.45;100.00;101060.41;5093958;28;19912;-35
2021/12/11 05:20:24;;;;;;;;;;;;;;;2.44;100.00;101075.59;5094305;28;19912;-35
2021/12/11 05:22:50;;;;;;;;;;;;;;;2.47;100.00;101074.41;5093479;28;19912;-36
2021/12/11 05:25:15;;;;;;;;;;;;;;;2.49;100.00;101065.25;5093491;28;19912;-36
2021/12/11 05:27:42;;;;;;;;;;;;;;;2.48;100.00;101068.06;5093161;28;20352;-35
2021/12/11 05:30:11;;;;;;;;;;;;;;;2.48;100.00;101066.22;5093131;28;20003;-36
2021/12/11 05:32:38;;;;;;;;;;;;;;;2.47;100.00;101071.75;5093071;28;19934;-35
2021/12/11 05:35:04;;;;;;;;;;;;;;;2.43;100.00;101073.09;5093389;28;19912;-35
2021/12/11 05:37:29;;;;;;;;;;;;;;;2.38;100.00;101070.94;5093083;28;20410;-35
2021/12/11 05:39:54;;;;;;;;;;;;;;;2.30;100.00;101078.97;5093728;28;19912;-36
2021/12/11 05:42:19;;;;;;;;;;;;;;;2.25;100.00;101076.81;5092661;28;19912;-35
2021/12/11 05:44:45;;;;;;;;;;;;;;;2.23;100.00;101077.97;5092793;28;19919;-35
2021/12/11 05:47:10;;;;;;;;;;;;;;;2.23;100.00;101084.16;5093759;28;19912;-36
2021/12/11 05:49:36;;;;;;;;;;;;;;;2.26;100.00;101091.81;5093566;28;19912;-35
2021/12/11 05:52:03;;;;;;;;;;;;;;;2.28;100.00;101095.16;5092675;28;20307;-35
2021/12/11 05:54:29;;;;;;;;;;;;;;;2.28;100.00;101094.31;5093516;28;20325;-36
2021/12/11 05:56:59;;;;;;;;;;;;;;;2.29;100.00;101095.97;5093442;28;20007;-35
2021/12/11 05:59:25;;;;;;;;;;;;;;;2.27;100.00;101103.31;5094261;28;19923;-35
2021/12/11 06:01:55;;;;;;;;;;;;;;;2.28;100.00;101102.31;5096801;28;20010;-36
2021/12/11 06:04:26;;;;;;;;;;;;;;;2.32;100.00;101099.13;5096347;28;20372;-36
2021/12/11 06:06:52;;;;;;;;;;;;;;;2.33;100.00;101100.81;5097138;28;20278;-36
2021/12/11 06:09:19;;;;;;;;;;;;;;;2.33;100.00;101106.13;5096935;28;19911;-36
2021/12/11 06:11:46;;;;;;;;;;;;;;;2.30;100.00;101106.50;5096195;28;19923;-36
2021/12/11 06:14:11;;;;;;;;;;;;;;;2.26;100.00;101110.50;5096628;28;19922;-36
2021/12/11 06:16:37;;;;;;;;;;;;;;;2.26;100.00;101105.16;5096832;28;20015;-36
2021/12/11 06:19:05;;;;;;;;;;;;;;;2.26;100.00;101115.84;5078258;28;19916;-36
2021/12/11 06:21:32;;;;;;;;;;;;;;;2.26;100.00;101115.84;5096277;28;19957;-36
2021/12/11 06:23:57;;;;;;;;;;;;;;;2.29;100.00;101118.19;5096375;28;19919;-36
2021/12/11 06:26:22;;;;;;;;;;;;;;;2.36;100.00;101122.84;5096241;28;19912;-36
2021/12/11 06:28:47;;;;;;;;;;;;;;;2.36;100.00;101130.84;5095967;28;19959;-36
2021/12/11 06:31:18;;;;;;;;;;;;;;;2.36;100.00;101126.31;5096129;28;20449;-36
2021/12/11 06:33:45;;;;;;;;;;;;;;;2.38;100.00;101128.81;5095838;28;20070;-36
2021/12/11 06:36:10;;;;;;;;;;;;;;;2.37;100.00;101132.50;5096798;28;19937;-36
2021/12/11 06:38:37;;;;;;;;;;;;;;;2.38;100.00;101140.31;5096657;28;19911;-36
2021/12/11 06:41:04;;;;;;;;;;;;;;;2.41;100.00;101147.16;5095997;28;19916;-36
2021/12/11 06:43:29;;;;;;;;;;;;;;;2.42;100.00;101152.34;5096960;28;19935;-36
2021/12/11 06:45:55;;;;;;;;;;;;;;;2.40;100.00;101151.69;5095774;28;19991;-36
2021/12/11 06:48:20;;;;;;;;;;;;;;;2.40;100.00;101151.69;5095934;28;19972;-36
2021/12/11 06:50:47;;;;;;;;;;;;;;;2.43;100.00;101163.84;5095726;28;19916;-36
2021/12/11 06:53:17;;;;;;;;;;;;;;;2.44;100.00;101158.34;5095484;28;19916;-36
2021/12/11 06:55:42;;;;;;;;;;;;;;;2.48;100.00;101174.84;5096148;28;19916;-36
2021/12/11 06:58:07;;;;;;;;;;;;;;;2.47;100.00;101171.34;5095504;28;20275;-36
2021/12/11 07:00:33;;;;;;;;;;;;;;;2.50;100.00;101171.00;5096179;28;19969;-36
2021/12/11 07:02:58;;;;;;;;;;;;;;;2.55;100.00;101178.50;5095556;28;19912;-36
2021/12/11 07:05:24;;;;;;;;;;;;;;;2.55;100.00;101178.50;5095573;28;20291;-36
2021/12/11 07:07:49;;;;;;;;;;;;;;;2.57;100.00;101182.66;5095190;28;20352;-36
2021/12/11 07:10:22;;;;;;;;;;;;;;;2.59;100.00;101187.84;5095613;28;19958;-36
2021/12/11 07:12:48;;;;;;;;;;;;;;;2.61;100.00;101185.84;5095523;28;20003;-36
2021/12/11 07:15:13;;;;;;;;;;;;;;;2.63;100.00;101191.81;5095580;28;19916;-36
2021/12/11 07:17:39;;;;;;;;;;;;;;;2.64;100.00;101185.50;5094862;28;19919;-36
2021/12/11 07:20:05;;;;;;;;;;;;;;;2.65;100.00;101197.84;5095156;28;20003;-36
2021/12/11 07:22:30;;;;;;;;;;;;;;;2.66;100.00;101196.84;5095046;28;19912;-36
2021/12/11 07:24:59;;;;;;;;;;;;;;;2.67;100.00;101198.50;5095622;28;19912;-36
2021/12/11 07:27:24;;;;;;;;;;;;;;;2.70;100.00;101206.19;5094742;28;19968;-36
2021/12/11 07:29:49;;;;;;;;;;;;;;;2.72;100.00;101214.84;5095259;28;19955;-36
2021/12/11 07:32:15;;;;;;;;;;;;;;;2.75;100.00;101211.00;5095138;28;20052;-36
2021/12/11 07:34:41;;;;;;;;;;;;;;;2.78;100.00;101208.84;5094897;28;19912;-36
2021/12/11 07:37:06;;;;;;;;;;;;;;;2.81;100.00;101216.50;5094881;28;19958;-36
2021/12/11 07:39:31;;;;;;;;;;;;;;;2.84;100.00;101209.97;5095388;28;20336;-36
2021/12/11 07:41:57;;;;;;;;;;;;;;;2.90;100.00;101221.81;5094820;28;19911;-36
2021/12/11 07:44:24;;;;;;;;;;;;;;;2.93;100.00;101219.66;5094695;28;19919;-36
2021/12/11 07:46:51;;;;;;;;;;;;;;;2.97;100.00;101225.44;5095308;28;19935;-36
2021/12/11 07:49:17;;;;;;;;;;;;;;;2.99;100.00;101234.16;5095269;28;19943;-36
2021/12/11 07:51:42;;;;;;;;;;;;;;;2.99;100.00;101229.63;5094977;28;19959;-36
2021/12/11 07:54:08;;;;;;;;;;;;;;;3.03;100.00;101238.16;5094602;28;19923;-36
2021/12/11 07:56:34;;;;;;;;;;;;;;;3.07;100.00;101239.44;5094858;28;20335;-36
2021/12/11 07:59:00;;;;;;;;;;;;;;;3.09;100.00;101240.13;5094708;28;19916;-36
2021/12/11 08:01:29;;;;;;;;;;;;;;;3.11;100.00;101243.44;5094412;28;19965;-36
2021/12/11 08:03:57;;;;;;;;;;;;;;;3.12;100.00;101239.75;5094666;28;19916;-36
2021/12/11 08:06:22;;;;;;;;;;;;;;;3.12;100.00;101239.75;5094231;28;20279;-36
2021/12/11 08:08:47;;;;;;;;;;;;;;;3.14;100.00;101250.28;5094207;28;19912;-36
2021/12/11 08:11:17;;;;;;;;;;;;;;;3.16;100.00;101261.63;5078452;28;20081;-36
2021/12/11 08:13:44;;;;;;;;;;;;;;;3.16;100.00;101262.47;5074435;28;20010;-36
2021/12/11 08:16:09;;;;;;;;;;;;;;;3.18;100.00;101270.34;5073457;28;20352;-36
2021/12/11 08:18:34;;;;;;;;;;;;;;;3.21;100.00;101272.63;5073829;28;19919;-36
2021/12/11 08:21:00;;;;;;;;;;;;;;;3.24;100.00;101275.81;5073437;28;20394;-36
2021/12/11 08:23:25;;;;;;;;;;;;;;;3.27;100.00;101274.63;5073839;28;20328;-36
2021/12/11 08:25:51;;;;;;;;;;;;;;;3.29;100.00;101294.84;5073398;28;20372;-36
2021/12/11 08:28:20;;;;;;;;;;;;;;;3.32;100.00;101302.53;5074417;28;19919;-36
2021/12/11 08:30:49;;;;;;;;;;;;;;;3.36;100.00;101306.50;5073630;28;19918;-36
2021/12/11 08:33:14;;;;;;;;;;;;;;;3.42;100.00;101317.53;5074594;28;19954;-36
2021/12/11 08:35:40;;;;;;;;;;;;;;;3.48;100.00;101311.47;5073765;28;19912;-36
2021/12/11 08:38:06;;;;;;;;;;;;;;;3.50;100.00;101323.66;5073495;28;19912;-36
2021/12/11 08:40:33;;;;;;;;;;;;;;;3.56;100.00;101327.47;5073680;28;19912;-36
2021/12/11 08:42:59;;;;;;;;;;;;;;;3.61;100.00;101334.00;5073398;28;20305;-36
2021/12/11 08:45:36;;;;;;;;;;;;;;;3.66;100.00;101328.13;5074458;28;20260;-36
2021/12/11 08:48:01;;;;;;;;;;;;;;;3.73;100.00;101342.47;5073578;28;19916;-36
2021/12/11 08:50:28;;;;;;;;;;;;;;;3.80;100.00;101345.25;5073250;28;20061;-36
2021/12/11 08:52:55;;;;;;;;;;;;;;;3.88;100.00;101343.38;5073689;28;20387;-36
2021/12/11 08:55:32;;;;;;;;;;;;;;;3.92;100.00;101354.59;5073808;28;19943;-36
2021/12/11 08:57:58;;;;;;;;;;;;;;;3.97;100.00;101359.41;5074085;28;19923;-36
2021/12/11 09:00:29;;;;;;;;;;;;;;;4.01;100.00;101364.25;5055756;28;20029;-36
2021/12/11 09:03:00;;;;;;;;;;;;;;;4.03;100.00;101372.91;5074296;28;19912;-36
2021/12/11 09:05:29;;;;;;;;;;;;;;;4.08;100.00;101372.41;5074065;28;20094;-36
2021/12/11 09:07:59;;;;;;;;;;;;;;;4.11;100.00;101380.09;5073407;28;20007;-36
2021/12/11 09:10:35;;;;;;;;;;;;;;;4.18;100.00;101390.91;5073965;28;19917;-36
2021/12/11 09:13:06;;;;;;;;;;;;;;;4.19;100.00;101401.44;5073683;28;19938;-36
2021/12/11 09:15:37;;;;;;;;;;;;;;;4.22;100.00;101397.59;5073040;28;19912;-36
2021/12/11 09:18:06;;;;;;;;;;;;;;;4.26;100.00;101409.63;5073620;28;19917;-36
2021/12/11 09:20:37;;;;;;;;;;;;;;;4.32;100.00;101420.44;5073904;28;20265;-36
2021/12/11 09:23:13;;;;;;;;;;;;;;;4.36;100.00;101434.31;5073235;28;19913;-36
2021/12/11 09:25:43;;;;;;;;;;;;;;;4.40;100.00;101432.97;5073334;28;19912;-36
2021/12/11 09:28:14;;;;;;;;;;;;;;;4.42;100.00;101438.97;5073390;28;19959;-36
2021/12/11 09:30:46;;;;;;;;;;;;;;;4.45;100.00;101445.84;5073481;28;19916;-36
2021/12/11 09:33:17;;;;;;;;;;;;;;;4.45;100.00;101445.84;5074635;28;20008;-36
2021/12/11 09:35:51;;;;;;;;;;;;;;;4.46;100.00;101452.84;5077223;28;19916;-36
2021/12/11 09:38:19;;;;;;;;;;;;;;;4.48;100.00;101459.69;5077361;28;20326;-36
2021/12/11 09:40:44;;;;;;;;;;;;;;;4.50;100.00;101459.53;5077400;28;19942;-36
2021/12/11 09:43:24;;;;;;;;;;;;;;;4.51;100.00;101463.88;5076945;28;19912;-36
2021/12/11 09:45:49;;;;;;;;;;;;;;;4.50;100.00;101481.78;5077279;28;19920;-36
2021/12/11 09:48:17;;;;;;;;;;;;;;;4.51;100.00;101482.63;5077017;28;20280;-36
2021/12/11 09:50:53;;;;;;;;;;;;;;;4.53;100.00;101485.94;5076665;28;19913;-36
2021/12/11 09:53:21;;;;;;;;;;;;;;;4.55;100.00;101491.97;5076567;28;19919;-36
2021/12/11 09:55:46;;;;;;;;;;;;;;;4.57;100.00;101492.63;5076791;28;20042;-36
2021/12/11 09:58:13;;;;;;;;;;;;;;;4.56;100.00;101490.97;5076727;28;20007;-36
2021/12/11 10:00:47;;;;;;;;;;;;;;;4.59;100.00;101506.69;5076818;28;19978;-36
2021/12/11 10:03:15;;;;;;;;;;;;;;;4.60;100.00;101505.69;5077062;28;20267;-36
2021/12/11 10:05:44;;;;;;;;;;;;;;;4.61;100.00;101501.97;5076679;28;19912;-36
2021/12/11 10:11:04;;;;;;;;;;;;;;;4.59;100.00;101506.69;5077132;28;19934;-36
2021/12/11 10:13:30;;;;;;;;;;;;;;;4.61;100.00;101515.38;5076175;28;19920;-36
2021/12/11 10:15:55;;;;;;;;;;;;;;;4.58;100.00;101518.41;5076476;28;19939;-36
2021/12/11 10:18:24;;;;;;;;;;;;;;;4.57;100.00;101519.41;5076045;28;20348;-36
2021/12/11 10:20:54;;;;;;;;;;;;;;;4.56;100.00;101523.94;5077110;28;19952;-36
2021/12/11 10:23:22;;;;;;;;;;;;;;;4.56;100.00;101540.00;5090450;28;19931;-36
2021/12/11 10:25:48;;;;;;;;;;;;;;;4.58;100.00;101545.19;5097063;28;19912;-36
2021/12/11 10:28:18;;;;;;;;;;;;;;;4.63;100.00;101550.84;5097119;28;19962;-36
2021/12/11 10:30:45;;;;;;;;;;;;;;;4.65;100.00;101548.84;5095440;28;19916;-36
2021/12/11 10:33:12;;;;;;;;;;;;;;;4.69;100.00;101543.97;5095646;28;19964;-36
2021/12/11 10:35:39;;;;;;;;;;;;;;;4.74;100.00;101547.81;5096775;28;20233;-36
2021/12/11 10:38:06;;;;;;;;;;;;;;;4.79;100.00;101550.78;5096743;28;20272;-36
2021/12/11 10:40:36;;;;;;;;;;;;;;;4.84;100.00;101552.94;5095837;28;19998;-36
2021/12/11 10:43:05;;;;;;;;;;;;;;;4.88;100.00;101554.22;5096120;28;19912;-36
2021/12/11 10:45:30;;;;;;;;;;;;;;;4.88;100.00;101555.09;5095526;28;19931;-36
2021/12/11 10:47:59;;;;;;;;;;;;;;;4.93;100.00;101562.59;5096355;28;19912;-36
2021/12/11 10:50:42;;;;;;;;;;;;;;;4.96;100.00;101566.75;5096689;28;20010;-36
2021/12/11 10:53:09;;;;;;;;;;;;;;;5.00;100.00;101578.81;5096319;28;19912;-36
2021/12/11 10:55:35;;;;;;;;;;;;;;;5.05;100.00;101577.25;5097065;28;19916;-36
2021/12/11 10:58:03;;;;;;;;;;;;;;;5.12;100.00;101577.38;5095589;28;20024;-36
2021/12/11 11:00:34;;;;;;;;;;;;;;;5.21;100.00;101578.16;5096670;28;20229;-37
2021/12/11 11:02:59;;;;;;;;;;;;;;;5.30;100.00;101583.28;5096193;28;19915;-36
2021/12/11 11:05:27;;;;;;;;;;;;;;;5.32;100.00;101581.28;5096060;28;19954;-36
2021/12/11 11:07:52;;;;;;;;;;;;;;;5.31;100.00;101589.50;5095904;28;20006;-36
2021/12/11 11:10:20;;;;;;;;;;;;;;;5.33;100.00;101585.63;5096500;28;20295;-36
2021/12/11 11:12:46;;;;;;;;;;;;;;;5.45;100.00;101590.56;5095534;28;20267;-36
2021/12/11 11:15:12;;;;;;;;;;;;;;;5.53;100.00;101601.25;5095684;28;19911;-36
2021/12/11 11:17:37;;;;;;;;;;;;;;;5.55;100.00;101604.56;5095456;28;19912;-36
2021/12/11 11:20:08;;;;;;;;;;;;;;;5.53;100.00;101610.13;5095403;28;19958;-36
2021/12/11 11:22:35;;;;;;;;;;;;;;;5.54;100.00;101619.84;5095908;28;20003;-36
2021/12/11 11:25:11;;;;;;;;;;;;;;;5.54;100.00;101613.66;5095434;28;19912;-36
2021/12/11 11:27:37;;;;;;;;;;;;;;;5.53;100.00;101622.72;5095558;28;19938;-36
2021/12/11 11:30:05;;;;;;;;;;;;;;;5.54;100.00;101625.22;5096018;28;19919;-36
2021/12/11 11:32:33;;;;;;;;;;;;;;;5.57;100.00;101621.34;5095431;28;20013;-36
2021/12/11 11:35:02;;;;;;;;;;;;;;;5.56;100.00;101617.84;5094916;28;19912;-36
2021/12/11 11:37:28;;;;;;;;;;;;;;;5.58;100.00;101621.16;5095907;28;20016;-36
2021/12/11 11:39:53;;;;;;;;;;;;;;;5.58;100.00;101637.25;5094997;28;19978;-36
2021/12/11 11:42:20;;;;;;;;;;;;;;;5.59;100.00;101632.72;5095644;28;19912;-36
2021/12/11 11:44:46;;;;;;;;;;;;;;;5.61;100.00;101631.53;5095371;28;19912;-36
2021/12/11 11:47:13;;;;;;;;;;;;;;;5.66;100.00;101645.25;5094969;28;19912;-36
2021/12/11 11:49:39;;;;;;;;;;;;;;;5.68;100.00;101637.84;5094781;28;19912;-36
2021/12/11 11:52:08;;;;;;;;;;;;;;;5.72;100.00;101642.88;5094814;28;19912;-36
2021/12/11 11:54:34;;;;;;;;;;;;;;;5.74;100.00;101647.03;5094485;28;20352;-36
2021/12/11 11:57:06;;;;;;;;;;;;;;;5.78;100.00;101650.19;5093784;28;19927;-36
2021/12/11 11:59:31;;;;;;;;;;;;;;;5.84;100.00;101646.78;5094728;28;19918;-36
2021/12/11 12:02:00;;;;;;;;;;;;;;;5.96;100.00;101649.94;5095442;28;20018;-36
2021/12/11 12:04:27;;;;;;;;;;;;;;;6.03;100.00;101650.84;5095202;28;19964;-36
2021/12/11 12:06:59;;;;;;;;;;;;;;;6.08;100.00;101651.97;5094342;28;19912;-36
2021/12/11 12:09:27;;;;;;;;;;;;;;;6.13;100.00;101652.25;5094885;28;19974;-36
2021/12/11 12:11:53;;;;;;;;;;;;;;;6.20;100.00;101657.75;5094470;28;20265;-36
2021/12/11 12:14:23;;;;;;;;;;;;;;;6.22;100.00;101660.25;5094580;28;19956;-36
2021/12/11 12:16:49;;;;;;;;;;;;;;;6.20;100.00;101660.44;5094216;28;19912;-35
2021/12/11 12:19:15;;;;;;;;;;;;;;;6.23;100.00;101661.91;5094662;28;19922;-36
2021/12/11 12:21:41;;;;;;;;;;;;;;;6.26;100.00;101666.94;5094520;28;19989;-35
2021/12/11 12:24:07;;;;;;;;;;;;;;;6.25;100.00;101681.38;5094273;28;20419;-35
2021/12/11 12:26:34;;;;;;;;;;;;;;;6.28;100.00;101679.16;5094399;28;19951;-35
2021/12/11 12:29:00;;;;;;;;;;;;;;;6.30;100.00;101673.63;5094694;28;19961;-35
2021/12/11 12:31:28;;;;;;;;;;;;;;;6.27;100.00;101676.66;5094071;28;19911;-35
2021/12/11 12:33:54;;;;;;;;;;;;;;;6.23;100.00;101673.50;5094883;28;19969;-35
2021/12/11 12:36:19;;;;;;;;;;;;;;;6.20;100.00;101668.50;5093708;28;20356;-36
2021/12/11 12:38:45;;;;;;;;;;;;;;;6.20;100.00;101671.19;5094839;28;19934;-36
2021/12/11 12:41:11;;;;;;;;;;;;;;;6.21;100.00;101675.53;5094021;28;20355;-35
2021/12/11 12:46:16;;;;;;;;;;;;;;;6.23;100.00;101678.03;5093992;28;19916;-36
2021/12/11 12:48:41;;;;;;;;;;;;;;;6.24;100.00;101687.75;5094660;28;19912;-35
2021/12/11 12:51:08;;;;;;;;;;;;;;;6.26;100.00;101677.69;5093520;28;19912;-35
2021/12/11 12:53:34;;;;;;;;;;;;;;;6.28;100.00;101695.28;5076115;28;19959;-35
2021/12/11 12:56:03;;;;;;;;;;;;;;;6.29;100.00;101686.19;5093727;28;19963;-35
2021/12/11 12:58:31;;;;;;;;;;;;;;;6.29;100.00;101691.56;5093898;28;19916;-35
2021/12/11 13:01:03;;;;;;;;;;;;;;;6.25;100.00;101692.97;5093688;28;19912;-36